createdAt,value
2023-05-25T00:00:15.791Z,12.70
2023-05-25T00:05:38.394Z,12.60
2023-05-25T00:10:40.946Z,12.70
2023-05-25T00:15:43.968Z,12.60
2023-05-25T00:20:47.686Z,12.70
2023-05-25T00:25:50.985Z,12.70
2023-05-25T00:30:53.614Z,12.70
2023-05-25T00:35:57.510Z,12.70
2023-05-25T00:41:00.564Z,12.50
2023-05-25T00:46:03.496Z,12.60
2023-05-25T00:51:06.346Z,12.70
2023-05-25T00:56:18.339Z,12.70
2023-05-25T01:01:22.355Z,12.60
2023-05-25T01:06:27.141Z,12.70
2023-05-25T01:11:35.105Z,15.50
2023-05-25T01:16:38.384Z,12.60
2023-05-25T01:22:09.926Z,12.60
2023-05-25T01:27:33.472Z,12.70
2023-05-25T01:32:37.762Z,12.60
2023-05-25T01:37:49.509Z,12.50
2023-05-25T01:42:52.333Z,12.60
2023-05-25T01:48:13.186Z,12.50
2023-05-25T01:53:21.430Z,12.50
2023-05-25T01:58:26.096Z,12.50
2023-05-25T02:03:29.074Z,12.50
2023-05-25T02:08:31.706Z,12.40
2023-05-25T02:13:35.909Z,12.50
2023-05-25T02:18:38.398Z,12.50
2023-05-25T02:23:40.964Z,12.40
2023-05-25T02:28:43.501Z,12.40
2023-05-25T02:33:46.433Z,12.40
2023-05-25T02:38:50.167Z,12.40
2023-05-25T02:43:54.268Z,12.40
2023-05-25T02:48:57.258Z,12.30
2023-05-25T02:54:01.338Z,12.30
2023-05-25T02:59:04.133Z,12.30
2023-05-25T03:09:27.943Z,12.40
2023-05-25T03:14:30.634Z,12.30
2023-05-25T03:19:39.401Z,12.30
2023-05-25T03:24:42.057Z,12.40
2023-05-25T03:29:45.475Z,12.30
2023-05-25T03:34:49.490Z,12.40
2023-05-25T03:39:53.644Z,12.40
2023-05-25T03:44:56.561Z,12.30
2023-05-25T03:49:59.512Z,12.40
2023-05-25T03:55:04.487Z,12.50
2023-05-25T04:00:09.180Z,12.50
2023-05-25T04:05:15.108Z,12.60
2023-05-25T04:10:17.790Z,12.70
2023-05-25T04:15:21.334Z,12.70
2023-05-25T04:20:50.460Z,12.70
2023-05-25T04:25:56.787Z,12.80
2023-05-25T04:30:59.628Z,12.80
2023-05-25T04:36:23.643Z,12.90
2023-05-25T04:41:26.498Z,12.90
2023-05-25T04:46:37.205Z,13.00
2023-05-25T04:51:39.988Z,13.10
2023-05-25T04:56:43.481Z,13.20
2023-05-25T05:01:46.088Z,13.10
2023-05-25T05:06:58.792Z,13.10
2023-05-25T05:12:03.740Z,13.20
2023-05-25T05:17:12.853Z,13.30
2023-05-25T05:22:16.147Z,13.60
2023-05-25T05:27:20.765Z,13.70
2023-05-25T05:32:29.296Z,14.00
2023-05-25T05:37:33.208Z,13.70
2023-05-25T05:42:36.037Z,13.90
2023-05-25T05:47:38.635Z,13.80
2023-05-25T05:52:41.169Z,14.00
2023-05-25T05:57:48.655Z,14.20
2023-05-25T06:02:53.204Z,14.20
2023-05-25T06:07:59.580Z,14.60
2023-05-25T06:13:02.148Z,15.00
2023-05-25T06:18:05.028Z,15.50
2023-05-25T06:23:11.389Z,15.70
2023-05-25T06:28:14.194Z,16.00
2023-05-25T06:33:17.960Z,16.20
2023-05-25T06:38:20.670Z,16.90
2023-05-25T06:43:23.409Z,17.40
2023-05-25T06:48:39.509Z,17.70
2023-05-25T06:53:42.256Z,19.00
2023-05-25T06:58:45.130Z,18.40
2023-05-25T07:03:47.638Z,19.00
2023-05-25T07:08:50.402Z,19.90
2023-05-25T07:13:53.075Z,20.60
2023-05-25T07:18:56.434Z,19.80
2023-05-25T07:24:00.793Z,20.30
2023-05-25T07:29:03.618Z,20.40
2023-05-25T07:34:06.163Z,20.20
2023-05-25T07:39:09.845Z,19.40
2023-05-25T07:44:12.320Z,19.80
2023-05-25T07:49:16.384Z,19.70
2023-05-25T07:54:19.110Z,19.80
2023-05-25T07:59:21.994Z,20.00
2023-05-25T08:04:24.576Z,19.90
2023-05-25T08:09:27.149Z,20.00
2023-05-25T08:14:29.666Z,19.80
2023-05-25T08:19:32.665Z,19.00
2023-05-25T08:24:35.430Z,19.70
2023-05-25T08:29:37.965Z,19.70
2023-05-25T08:34:40.624Z,19.90
2023-05-25T08:39:43.311Z,20.40
2023-05-25T08:44:45.953Z,20.90
2023-05-25T08:49:50.172Z,21.70
2023-05-25T08:54:55.564Z,21.40
2023-05-25T09:00:11.430Z,21.70
2023-05-25T09:05:14.090Z,21.70
2023-05-25T09:10:17.849Z,21.80
2023-05-25T09:15:20.480Z,22.10
2023-05-25T09:20:24.928Z,20.90
2023-05-25T09:25:29.112Z,20.70
2023-05-25T09:30:33.228Z,20.80
2023-05-25T09:35:36.021Z,21.40
2023-05-25T09:40:38.779Z,21.60
2023-05-25T09:45:41.305Z,21.60
2023-05-25T09:50:45.958Z,21.70
2023-05-25T09:55:54.283Z,21.10
2023-05-25T10:00:58.371Z,21.20
2023-05-25T10:06:01.880Z,20.90
2023-05-25T10:11:05.647Z,21.50
2023-05-25T10:16:13.349Z,21.90
2023-05-25T10:21:18.174Z,21.30
2023-05-25T10:26:26.302Z,21.80
2023-05-25T10:31:29.974Z,22.70
2023-05-25T10:36:34.850Z,23.70
2023-05-25T10:41:37.345Z,24.10
2023-05-25T10:46:40.448Z,23.70
2023-05-25T10:51:43.894Z,24.10
2023-05-25T10:57:14.254Z,24.30
2023-05-25T11:02:17.501Z,25.00
2023-05-25T11:07:22.335Z,25.00
2023-05-25T11:12:26.573Z,25.30
2023-05-25T11:17:32.376Z,25.30
2023-05-25T11:22:36.348Z,25.20
2023-05-25T11:27:46.577Z,24.60
2023-05-25T11:32:50.688Z,24.40
2023-05-25T11:37:53.772Z,24.10
2023-05-25T11:42:58.188Z,23.80
2023-05-25T11:48:01.149Z,23.50
2023-05-25T11:53:07.190Z,23.30
2023-05-25T11:58:09.857Z,23.30
2023-05-25T12:03:31.922Z,23.50
2023-05-25T12:08:36.234Z,23.80
2023-05-25T12:13:41.225Z,23.40
2023-05-25T12:18:44.280Z,23.50
2023-05-25T12:23:47.070Z,23.20
2023-05-25T12:29:00.673Z,23.60
2023-05-25T12:34:07.575Z,24.10
2023-05-25T12:39:12.220Z,24.50
2023-05-25T12:44:23.941Z,22.90
2023-05-25T12:49:28.077Z,22.90
2023-05-25T12:54:38.895Z,23.60
2023-05-25T12:59:46.251Z,24.70
2023-05-25T13:04:49.366Z,24.20
2023-05-25T13:09:52.255Z,23.20
2023-05-25T13:14:54.888Z,23.70
2023-05-25T13:19:58.600Z,23.80
2023-05-25T13:25:02.147Z,23.50
2023-05-25T13:30:11.850Z,23.50
2023-05-25T13:35:22.638Z,23.40
2023-05-25T13:40:25.122Z,23.90
2023-05-25T13:45:28.161Z,24.20
2023-05-25T13:50:30.892Z,25.00
2023-05-25T13:55:34.150Z,24.70
2023-05-25T14:00:38.084Z,24.20
2023-05-25T14:05:42.709Z,23.70
2023-05-25T14:10:45.708Z,23.50
2023-05-25T14:15:48.717Z,23.60
2023-05-25T14:20:52.546Z,23.80
2023-05-25T14:25:55.321Z,23.50
2023-05-25T14:30:57.915Z,23.80
2023-05-25T14:36:01.579Z,23.70
2023-05-25T14:41:04.295Z,23.90
2023-05-25T14:46:07.457Z,24.10
2023-05-25T14:51:09.970Z,23.50
2023-05-25T14:56:12.538Z,23.50
2023-05-25T15:01:15.098Z,23.60
2023-05-25T15:06:17.802Z,23.80
2023-05-25T15:11:25.434Z,23.00
2023-05-25T15:16:28.266Z,22.40
2023-05-25T15:21:30.949Z,22.50
2023-05-25T15:26:33.857Z,22.70
2023-05-25T15:31:36.735Z,23.00
2023-05-25T15:36:39.422Z,23.20
2023-05-25T15:41:42.135Z,23.10
2023-05-25T15:46:45.142Z,23.30
2023-05-25T15:51:47.924Z,23.40
2023-05-25T15:56:50.576Z,23.10
2023-05-25T16:01:53.362Z,22.50
2023-05-25T16:06:55.945Z,22.50
2023-05-25T16:11:58.952Z,22.10
2023-05-25T16:17:01.462Z,21.70
2023-05-25T16:22:04.147Z,21.90
2023-05-25T16:27:06.830Z,22.00
2023-05-25T16:32:09.633Z,22.20
2023-05-25T16:37:12.527Z,22.20
2023-05-25T16:42:15.378Z,22.10
2023-05-25T16:47:18.131Z,21.60
2023-05-25T16:52:24.865Z,21.20
2023-05-25T16:57:27.728Z,20.80
2023-05-25T17:02:30.439Z,21.60
2023-05-25T17:07:34.261Z,21.20
2023-05-25T17:12:37.448Z,21.10
2023-05-25T17:17:40.102Z,21.60
2023-05-25T17:22:42.964Z,21.10
2023-05-25T17:27:45.951Z,20.90
2023-05-25T17:32:49.046Z,20.60
2023-05-25T17:37:52.458Z,20.60
2023-05-25T17:42:55.371Z,20.30
2023-05-25T17:47:58.847Z,20.00
2023-05-25T17:53:01.887Z,20.00
2023-05-25T17:58:04.906Z,19.20
2023-05-25T18:03:07.973Z,18.80
2023-05-25T18:08:11.432Z,18.20
2023-05-25T18:13:14.172Z,17.80
2023-05-25T18:18:20.686Z,17.50
2023-05-25T18:23:23.587Z,17.00
2023-05-25T18:28:27.524Z,16.60
2023-05-25T18:33:31.718Z,16.10
2023-05-25T18:38:34.559Z,15.80
2023-05-25T18:43:37.622Z,15.50
2023-05-25T18:48:40.499Z,15.30
2023-05-25T18:53:44.720Z,18.20
2023-05-25T18:58:48.784Z,15.10
2023-05-25T19:03:57.494Z,15.20
2023-05-25T19:09:02.072Z,15.30
2023-05-25T19:14:04.977Z,15.30
2023-05-25T19:19:08.585Z,15.30
2023-05-25T19:24:11.521Z,15.30
2023-05-25T19:29:14.460Z,15.30
2023-05-25T19:34:18.868Z,15.20
2023-05-25T19:39:22.505Z,15.20
2023-05-25T19:44:26.430Z,15.10
2023-05-25T19:49:29.437Z,15.20
2023-05-25T19:54:33.536Z,15.40
2023-05-25T19:59:38.032Z,15.70
2023-05-25T20:04:41.499Z,15.80
2023-05-25T20:09:45.881Z,16.00
2023-05-25T20:14:49.102Z,16.10
2023-05-25T20:19:53.798Z,16.20
2023-05-25T20:25:01.032Z,16.20
2023-05-25T20:30:04.156Z,16.20
2023-05-25T20:35:07.353Z,16.20
2023-05-25T20:40:11.103Z,16.30
2023-05-25T20:45:13.822Z,16.30
2023-05-25T20:50:16.560Z,16.30
2023-05-25T20:55:20.256Z,16.20
2023-05-25T21:00:23.801Z,16.20
2023-05-25T21:05:26.845Z,16.30
2023-05-25T21:10:29.375Z,16.50
2023-05-25T21:15:32.193Z,16.50
2023-05-25T21:20:34.933Z,18.60
2023-05-25T21:25:37.795Z,16.60
2023-05-25T21:30:40.414Z,16.50
2023-05-25T21:35:43.146Z,16.40
2023-05-25T21:40:45.917Z,16.50
2023-05-25T21:45:48.607Z,16.40
2023-05-25T21:50:51.970Z,16.40
2023-05-25T21:55:54.470Z,16.20
2023-05-25T22:00:57.195Z,16.20
2023-05-25T22:05:59.759Z,16.30
2023-05-25T22:11:02.246Z,16.10
2023-05-25T22:16:06.078Z,15.90
2023-05-25T22:21:08.769Z,15.70
2023-05-25T22:26:11.300Z,15.60
2023-05-25T22:31:13.896Z,15.60
2023-05-25T22:36:16.647Z,15.40
2023-05-25T22:41:19.310Z,15.20
2023-05-25T22:46:23.339Z,15.00
2023-05-25T22:51:26.098Z,14.60
2023-05-25T22:56:28.730Z,14.50
2023-05-25T23:01:31.286Z,14.30
2023-05-25T23:06:33.947Z,14.20
2023-05-25T23:11:36.442Z,14.10
2023-05-25T23:16:39.171Z,14.00
2023-05-25T23:21:42.037Z,14.00
2023-05-25T23:26:44.931Z,13.90
2023-05-25T23:31:47.711Z,13.90
2023-05-25T23:36:53.973Z,13.70
2023-05-25T23:41:56.587Z,13.30
2023-05-25T23:46:59.287Z,13.20
2023-05-25T23:52:02.304Z,13.00
2023-05-25T23:57:05.049Z,12.90
